createdAt,value
2017-10-25T00:02:12.424Z,13.12
2017-10-25T00:04:40.370Z,13.19
2017-10-25T00:07:08.744Z,13.17
2017-10-25T00:09:37.089Z,13.10
2017-10-25T00:12:05.051Z,13.10
2017-10-25T00:14:32.998Z,13.12
2017-10-25T00:17:00.973Z,13.15
2017-10-25T00:19:28.945Z,13.11
2017-10-25T00:21:56.917Z,13.17
2017-10-25T00:24:24.936Z,13.15
2017-10-25T00:26:53.288Z,13.13
2017-10-25T00:29:21.293Z,13.17
2017-10-25T00:31:49.248Z,13.25
2017-10-25T00:34:17.626Z,13.28
2017-10-25T00:36:45.984Z,13.39
2017-10-25T00:39:13.947Z,13.38
2017-10-25T00:41:41.958Z,13.37
2017-10-25T00:44:10.302Z,13.45
2017-10-25T00:46:38.265Z,13.45
2017-10-25T00:49:06.220Z,13.42
2017-10-25T00:51:34.236Z,13.46
2017-10-25T00:54:02.580Z,13.45
2017-10-25T00:56:30.600Z,13.49
2017-10-25T00:58:58.556Z,13.53
2017-10-25T01:01:26.901Z,13.49
2017-10-25T01:03:54.854Z,13.56
2017-10-25T01:06:22.872Z,13.59
2017-10-25T01:08:51.205Z,13.57
2017-10-25T01:11:19.170Z,13.57
2017-10-25T01:13:47.138Z,13.61
2017-10-25T01:16:15.170Z,13.63
2017-10-25T01:18:43.131Z,13.71
2017-10-25T01:21:11.574Z,13.52
2017-10-25T01:23:39.526Z,13.54
2017-10-25T01:26:07.500Z,13.53
2017-10-25T01:28:35.464Z,13.58
2017-10-25T01:31:03.484Z,13.51
2017-10-25T01:33:31.863Z,13.51
2017-10-25T01:36:00.206Z,13.57
2017-10-25T01:38:28.209Z,13.59
2017-10-25T01:40:56.596Z,13.56
2017-10-25T01:43:24.573Z,13.59
2017-10-25T01:45:52.649Z,13.67
2017-10-25T01:48:20.628Z,13.64
2017-10-25T01:50:48.676Z,13.56
2017-10-25T01:53:16.643Z,13.61
2017-10-25T01:55:45.021Z,13.68
2017-10-25T01:58:13.392Z,13.69
2017-10-25T02:00:41.794Z,13.70
2017-10-25T02:03:09.863Z,13.78
2017-10-25T02:05:37.925Z,13.69
2017-10-25T02:08:05.905Z,13.68
2017-10-25T02:10:33.988Z,13.60
2017-10-25T02:13:01.948Z,13.68
2017-10-25T02:15:29.904Z,13.67
2017-10-25T02:17:57.866Z,13.63
2017-10-25T02:20:26.215Z,13.68
2017-10-25T02:22:54.168Z,13.62
2017-10-25T02:25:22.197Z,13.60
2017-10-25T02:27:50.153Z,13.63
2017-10-25T02:30:18.564Z,13.68
2017-10-25T02:32:46.509Z,13.75
2017-10-25T02:35:14.468Z,13.74
2017-10-25T02:37:42.848Z,13.79
2017-10-25T02:40:11.330Z,13.75
2017-10-25T02:42:39.311Z,13.81
2017-10-25T02:45:07.278Z,13.81
2017-10-25T02:47:35.239Z,13.77
2017-10-25T02:50:03.616Z,13.80
2017-10-25T02:52:31.572Z,13.79
2017-10-25T02:54:59.964Z,13.78
2017-10-25T02:57:28.300Z,13.82
2017-10-25T02:59:56.257Z,13.75
2017-10-25T03:02:24.228Z,13.79
2017-10-25T03:04:52.193Z,13.87
2017-10-25T03:07:20.231Z,13.83
2017-10-25T03:09:48.192Z,13.81
2017-10-25T03:12:16.173Z,13.78
2017-10-25T03:14:44.141Z,13.84
2017-10-25T03:17:12.110Z,13.86
2017-10-25T03:19:40.076Z,13.80
2017-10-25T03:22:08.141Z,13.84
2017-10-25T03:24:36.090Z,13.79
2017-10-25T03:27:04.490Z,13.74
2017-10-25T03:29:32.459Z,13.79
2017-10-25T03:32:00.421Z,13.82
2017-10-25T03:34:28.788Z,13.80
2017-10-25T03:36:57.177Z,13.82
2017-10-25T03:39:26.112Z,13.86
2017-10-25T03:41:54.064Z,13.84
2017-10-25T03:44:22.102Z,13.84
2017-10-25T03:46:50.448Z,13.88
2017-10-25T03:49:18.480Z,13.88
2017-10-25T03:51:46.436Z,13.87
2017-10-25T03:54:14.393Z,13.89
2017-10-25T03:56:42.746Z,13.97
2017-10-25T03:59:10.695Z,13.99
2017-10-25T04:01:38.653Z,13.89
2017-10-25T04:04:06.678Z,13.88
2017-10-25T04:06:35.017Z,13.90
2017-10-25T04:09:02.965Z,13.94
2017-10-25T04:11:30.939Z,13.92
2017-10-25T04:13:58.926Z,13.95
2017-10-25T04:16:26.881Z,13.87
2017-10-25T04:18:54.840Z,13.86
2017-10-25T04:21:22.806Z,13.79
2017-10-25T04:23:50.871Z,13.89
2017-10-25T04:26:18.826Z,13.87
2017-10-25T04:28:51.598Z,13.92
2017-10-25T04:31:19.578Z,13.94
2017-10-25T04:33:47.533Z,13.95
2017-10-25T04:36:15.501Z,13.95
2017-10-25T04:38:43.873Z,13.95
2017-10-25T04:41:12.225Z,13.92
2017-10-25T04:43:40.175Z,13.97
2017-10-25T04:46:08.124Z,13.88
2017-10-25T04:48:36.082Z,13.98
2017-10-25T04:51:04.797Z,14.01
2017-10-25T04:53:32.820Z,14.04
2017-10-25T04:56:01.192Z,14.04
2017-10-25T04:58:29.536Z,14.06
2017-10-25T05:00:57.549Z,14.12
2017-10-25T05:03:25.520Z,14.09
2017-10-25T05:05:53.511Z,14.09
2017-10-25T05:08:21.460Z,14.15
2017-10-25T05:10:49.418Z,14.14
2017-10-25T05:13:17.356Z,14.19
2017-10-25T05:15:45.365Z,14.12
2017-10-25T05:18:13.333Z,14.11
2017-10-25T05:20:41.349Z,14.18
2017-10-25T05:23:09.292Z,14.19
2017-10-25T05:25:37.248Z,14.24
2017-10-25T05:28:05.186Z,14.22
2017-10-25T05:30:33.580Z,14.24
2017-10-25T05:33:01.909Z,14.16
2017-10-25T05:35:29.881Z,14.17
2017-10-25T05:37:57.836Z,14.23
2017-10-25T05:40:25.805Z,14.22
2017-10-25T05:42:53.835Z,14.23
2017-10-25T05:45:21.784Z,14.27
2017-10-25T05:47:49.787Z,14.29
2017-10-25T05:50:17.744Z,14.32
2017-10-25T05:52:45.692Z,14.30
2017-10-25T05:55:13.689Z,14.28
2017-10-25T05:57:41.649Z,14.31
2017-10-25T06:00:10.037Z,14.33
2017-10-25T06:02:37.977Z,14.34
2017-10-25T06:05:05.944Z,14.35
2017-10-25T06:07:33.949Z,14.31
2017-10-25T06:10:01.905Z,14.38
2017-10-25T06:12:29.871Z,14.45
2017-10-25T06:14:58.257Z,14.40
2017-10-25T06:17:26.215Z,14.41
2017-10-25T06:19:54.548Z,14.32
2017-10-25T06:22:22.510Z,14.41
2017-10-25T06:24:50.448Z,14.37
2017-10-25T06:27:18.760Z,14.37
2017-10-25T06:29:46.792Z,14.38
2017-10-25T06:32:14.752Z,14.44
2017-10-25T06:34:43.128Z,14.47
2017-10-25T06:37:11.476Z,14.49
2017-10-25T06:39:39.433Z,14.53
2017-10-25T06:42:07.398Z,14.55
2017-10-25T06:44:35.421Z,14.54
2017-10-25T06:47:03.802Z,14.58
2017-10-25T06:49:31.761Z,14.67
2017-10-25T06:52:00.108Z,14.73
2017-10-25T06:54:28.137Z,14.76
2017-10-25T06:56:56.096Z,14.70
2017-10-25T06:59:24.297Z,14.78
2017-10-25T07:01:52.266Z,14.88
2017-10-25T07:04:20.225Z,14.89
2017-10-25T07:06:48.205Z,14.93
2017-10-25T07:09:16.140Z,14.87
2017-10-25T07:11:44.105Z,15.00
2017-10-25T07:14:12.062Z,15.07
2017-10-25T07:16:40.406Z,15.07
2017-10-25T07:19:08.360Z,15.21
2017-10-25T07:21:36.321Z,15.35
2017-10-25T07:24:04.265Z,15.28
2017-10-25T07:26:32.229Z,15.25
2017-10-25T07:29:00.176Z,15.19
2017-10-25T07:31:28.526Z,15.30
2017-10-25T07:33:56.553Z,15.36
2017-10-25T07:36:24.520Z,15.49
2017-10-25T07:38:52.461Z,15.44
2017-10-25T07:41:20.821Z,15.46
2017-10-25T07:43:48.772Z,15.50
2017-10-25T07:46:16.724Z,15.51
2017-10-25T07:48:44.768Z,15.56
2017-10-25T07:51:12.732Z,15.65
2017-10-25T07:53:41.073Z,15.66
2017-10-25T07:56:09.029Z,15.71
2017-10-25T07:58:36.977Z,15.76
2017-10-25T08:01:05.025Z,15.73
2017-10-25T08:03:33.014Z,15.90
2017-10-25T08:06:00.969Z,16.02
2017-10-25T08:08:28.904Z,16.04
2017-10-25T08:10:56.855Z,16.04
2017-10-25T08:13:24.818Z,16.02
2017-10-25T08:15:52.793Z,16.11
2017-10-25T08:18:20.765Z,16.26
2017-10-25T08:20:48.733Z,16.16
2017-10-25T08:23:16.691Z,16.29
2017-10-25T08:25:44.661Z,16.47
2017-10-25T08:28:12.613Z,16.41
2017-10-25T08:30:40.576Z,16.37
2017-10-25T08:33:08.511Z,16.44
2017-10-25T08:35:36.857Z,16.33
2017-10-25T08:38:04.901Z,16.44
2017-10-25T08:40:32.869Z,16.55
2017-10-25T08:43:00.845Z,16.59
2017-10-25T08:45:28.805Z,16.56
2017-10-25T08:47:56.794Z,16.75
2017-10-25T08:50:24.752Z,16.78
2017-10-25T08:52:52.736Z,16.74
2017-10-25T08:55:20.693Z,16.67
2017-10-25T08:57:48.717Z,16.64
2017-10-25T09:00:16.684Z,16.68
2017-10-25T09:02:45.021Z,16.59
2017-10-25T09:05:12.980Z,16.88
2017-10-25T09:07:41.072Z,17.02
2017-10-25T09:10:09.057Z,17.12
2017-10-25T09:12:37.478Z,17.30
2017-10-25T09:15:05.436Z,17.32
2017-10-25T09:17:33.389Z,17.38
2017-10-25T09:20:01.728Z,17.62
2017-10-25T09:22:29.679Z,17.99
2017-10-25T09:24:57.703Z,18.18
2017-10-25T09:27:25.685Z,18.03
2017-10-25T09:29:53.632Z,18.29
2017-10-25T09:32:21.973Z,18.66
2017-10-25T09:34:49.996Z,18.65
2017-10-25T09:37:17.958Z,19.03
2017-10-25T09:39:46.345Z,19.35
2017-10-25T09:42:14.469Z,19.18
2017-10-25T09:44:42.417Z,19.20
2017-10-25T09:47:10.451Z,18.88
2017-10-25T09:49:38.419Z,18.81
2017-10-25T09:52:06.825Z,18.84
2017-10-25T09:54:34.884Z,18.70
2017-10-25T09:57:02.849Z,18.87
2017-10-25T09:59:30.806Z,18.78
2017-10-25T10:01:59.185Z,18.67
2017-10-25T10:04:27.524Z,18.76
2017-10-25T10:06:55.492Z,18.66
2017-10-25T10:09:23.458Z,18.43
2017-10-25T10:11:51.483Z,18.26
2017-10-25T10:14:19.437Z,17.90
2017-10-25T10:16:47.980Z,17.83
2017-10-25T10:19:15.928Z,17.61
2017-10-25T10:21:43.888Z,17.58
2017-10-25T10:24:11.833Z,17.70
2017-10-25T10:26:39.855Z,17.73
2017-10-25T10:29:07.886Z,17.72
2017-10-25T10:31:35.842Z,17.73
2017-10-25T10:34:03.797Z,17.98
2017-10-25T10:36:32.140Z,18.05
2017-10-25T10:39:00.150Z,18.00
2017-10-25T10:41:28.629Z,18.08
2017-10-25T10:43:56.959Z,18.09
2017-10-25T10:46:24.990Z,18.12
2017-10-25T10:48:52.956Z,18.31
2017-10-25T10:51:20.921Z,18.40
2017-10-25T10:53:49.318Z,18.45
2017-10-25T10:56:17.266Z,18.47
2017-10-25T10:58:45.625Z,18.46
2017-10-25T11:01:13.568Z,18.64
2017-10-25T11:03:41.525Z,18.62
2017-10-25T11:06:09.470Z,18.69
2017-10-25T11:08:37.424Z,18.71
2017-10-25T11:11:05.797Z,18.86
2017-10-25T11:13:34.138Z,18.89
2017-10-25T11:16:02.110Z,18.93
2017-10-25T11:18:30.090Z,18.95
2017-10-25T11:20:58.040Z,18.92
2017-10-25T11:23:26.049Z,18.89
2017-10-25T11:25:54.407Z,18.83
2017-10-25T11:28:22.361Z,18.88
2017-10-25T11:30:50.373Z,18.92
2017-10-25T11:33:18.337Z,19.04
2017-10-25T11:35:46.703Z,18.97
2017-10-25T11:38:15.045Z,19.03
2017-10-25T11:40:43.190Z,19.09
2017-10-25T11:43:11.136Z,19.20
2017-10-25T11:45:39.100Z,19.17
2017-10-25T11:48:07.445Z,19.05
2017-10-25T11:50:35.616Z,18.94
2017-10-25T11:53:03.574Z,18.93
2017-10-25T11:55:31.544Z,18.96
2017-10-25T11:57:59.497Z,18.93
2017-10-25T12:00:27.454Z,18.97
2017-10-25T12:02:55.400Z,19.09
2017-10-25T12:05:23.741Z,19.13
2017-10-25T12:07:51.753Z,19.14
2017-10-25T12:10:19.718Z,19.03
2017-10-25T12:12:47.689Z,18.88
2017-10-25T12:15:16.069Z,18.82
2017-10-25T12:17:44.409Z,18.72
2017-10-25T12:20:12.429Z,18.63
2017-10-25T12:22:40.384Z,18.48
2017-10-25T12:25:08.403Z,18.46
2017-10-25T12:27:36.379Z,18.45
2017-10-25T12:30:04.345Z,18.51
2017-10-25T12:32:32.301Z,18.55
2017-10-25T12:35:00.241Z,18.67
2017-10-25T12:37:28.293Z,18.66
2017-10-25T12:39:56.624Z,18.50
2017-10-25T12:42:24.581Z,18.53
2017-10-25T12:44:52.531Z,18.47
2017-10-25T12:47:20.482Z,18.61
2017-10-25T12:49:49.893Z,18.66
2017-10-25T12:52:17.851Z,18.65
2017-10-25T12:54:46.270Z,18.55
2017-10-25T12:57:14.225Z,18.50
2017-10-25T12:59:42.169Z,18.50
2017-10-25T13:02:11.093Z,18.55
2017-10-25T13:04:39.133Z,18.56
2017-10-25T13:07:07.511Z,18.46
2017-10-25T13:09:35.852Z,18.43
2017-10-25T13:12:19.874Z,18.46
2017-10-25T13:15:06.302Z,18.43
2017-10-25T13:17:37.944Z,18.40
2017-10-25T13:20:05.911Z,18.41
2017-10-25T13:22:33.944Z,18.35
2017-10-25T13:25:01.905Z,18.36
2017-10-25T13:27:29.871Z,18.31
2017-10-25T13:29:58.214Z,18.42
2017-10-25T13:32:26.221Z,18.53
2017-10-25T13:34:54.211Z,18.64
2017-10-25T13:37:22.161Z,18.49
2017-10-25T13:39:50.150Z,18.43
2017-10-25T13:42:18.121Z,18.28
2017-10-25T13:44:46.087Z,18.26
2017-10-25T13:47:14.140Z,18.26
2017-10-25T13:49:42.094Z,18.22
2017-10-25T13:52:10.496Z,18.18
2017-10-25T13:54:38.445Z,18.16
2017-10-25T13:57:06.836Z,18.06
2017-10-25T13:59:34.797Z,18.06
2017-10-25T14:02:03.170Z,18.10
2017-10-25T14:04:31.517Z,18.09
2017-10-25T14:06:59.541Z,18.07
2017-10-25T14:09:27.623Z,18.06
2017-10-25T14:11:55.666Z,18.02
2017-10-25T14:14:24.059Z,17.94
2017-10-25T14:16:52.013Z,17.92
2017-10-25T14:19:20.356Z,17.98
2017-10-25T14:21:48.391Z,18.02
2017-10-25T14:24:16.343Z,17.97
2017-10-25T14:26:56.398Z,17.98
2017-10-25T14:29:24.350Z,18.05
2017-10-25T14:31:52.706Z,17.89
2017-10-25T14:34:20.802Z,17.82
2017-10-25T14:36:49.205Z,17.73
2017-10-25T14:39:17.151Z,17.78
2017-10-25T14:41:45.117Z,17.70
2017-10-25T14:44:13.502Z,17.72
2017-10-25T14:46:41.496Z,17.61
2017-10-25T14:49:09.463Z,17.61
2017-10-25T14:51:37.626Z,17.58
2017-10-25T14:54:05.604Z,17.57
2017-10-25T14:56:33.656Z,17.62
2017-10-25T14:59:01.608Z,17.59
2017-10-25T15:01:29.977Z,17.60
2017-10-25T15:03:57.929Z,17.53
2017-10-25T15:06:25.902Z,17.57
2017-10-25T15:08:53.849Z,17.51
2017-10-25T15:11:21.818Z,17.49
2017-10-25T15:13:49.949Z,17.42
2017-10-25T15:16:18.021Z,17.32
2017-10-25T15:18:46.099Z,17.35
2017-10-25T15:21:14.049Z,17.40
2017-10-25T15:23:42.224Z,17.37
2017-10-25T15:26:10.604Z,17.35
2017-10-25T15:28:38.954Z,17.31
2017-10-25T15:31:06.963Z,17.28
2017-10-25T15:33:34.925Z,17.34
2017-10-25T15:36:03.291Z,17.42
2017-10-25T15:38:31.313Z,17.26
2017-10-25T15:40:59.282Z,17.27
2017-10-25T15:43:27.234Z,17.20
2017-10-25T15:45:55.224Z,17.19
2017-10-25T15:48:23.165Z,17.18
2017-10-25T15:50:51.145Z,17.18
2017-10-25T15:53:19.113Z,17.15
2017-10-25T15:55:47.074Z,17.08
2017-10-25T15:58:15.034Z,17.05
2017-10-25T16:00:43.006Z,17.04
2017-10-25T16:03:10.973Z,16.87
2017-10-25T16:05:38.928Z,16.76
2017-10-25T16:08:07.273Z,16.69
2017-10-25T16:10:35.231Z,16.69
2017-10-25T16:13:03.252Z,16.65
2017-10-25T16:15:31.212Z,16.42
2017-10-25T16:17:59.561Z,16.32
2017-10-25T16:20:27.540Z,16.24
2017-10-25T16:22:55.594Z,16.21
2017-10-25T16:25:23.725Z,16.16
2017-10-25T16:27:51.678Z,16.14
2017-10-25T16:30:20.027Z,16.19
2017-10-25T16:32:47.979Z,16.12
2017-10-25T16:35:15.982Z,16.12
2017-10-25T16:37:44.348Z,16.12
2017-10-25T16:40:12.306Z,16.10
2017-10-25T16:42:40.317Z,16.10
2017-10-25T16:45:08.294Z,16.10
2017-10-25T16:47:36.248Z,16.14
2017-10-25T16:50:04.729Z,16.09
2017-10-25T16:52:33.078Z,16.11
2017-10-25T16:55:01.029Z,16.10
2017-10-25T16:57:28.997Z,16.02
2017-10-25T16:59:56.988Z,16.04
2017-10-25T17:02:25.024Z,16.00
2017-10-25T17:04:53.163Z,16.00
2017-10-25T17:07:21.138Z,15.99
2017-10-25T17:09:49.103Z,15.90
2017-10-25T17:12:17.067Z,15.88
2017-10-25T17:14:45.085Z,15.89
2017-10-25T17:17:13.109Z,15.91
2017-10-25T17:19:41.461Z,15.88
2017-10-25T17:22:09.430Z,15.92
2017-10-25T17:24:37.374Z,15.97
2017-10-25T17:27:05.349Z,15.97
2017-10-25T17:29:33.364Z,15.89
2017-10-25T17:32:01.385Z,15.91
2017-10-25T17:34:29.349Z,16.00
2017-10-25T17:36:57.378Z,16.02
2017-10-25T17:39:25.554Z,15.97
2017-10-25T17:41:53.508Z,15.89
2017-10-25T17:44:21.840Z,15.91
2017-10-25T17:46:49.803Z,15.82
2017-10-25T17:49:17.745Z,15.84
2017-10-25T17:51:45.697Z,15.86
2017-10-25T17:54:14.075Z,15.83
2017-10-25T17:56:43.538Z,15.87
2017-10-25T17:59:11.485Z,15.81
2017-10-25T18:01:39.447Z,15.79
2017-10-25T18:04:07.417Z,15.67
2017-10-25T18:06:35.461Z,15.64
2017-10-25T18:09:03.421Z,15.55
2017-10-25T18:11:31.765Z,15.59
2017-10-25T18:13:59.785Z,15.60
2017-10-25T18:16:27.858Z,15.46
2017-10-25T18:18:55.816Z,15.37
2017-10-25T18:21:24.009Z,15.27
2017-10-25T18:23:51.968Z,15.16
2017-10-25T18:26:19.922Z,15.12
2017-10-25T18:28:48.412Z,15.12
2017-10-25T18:31:16.381Z,15.14
2017-10-25T18:33:44.345Z,15.21
2017-10-25T18:36:12.689Z,15.20
2017-10-25T18:38:40.643Z,15.16
2017-10-25T18:41:08.629Z,15.13
2017-10-25T18:43:37.588Z,15.05
2017-10-25T18:46:05.558Z,15.03
2017-10-25T18:48:33.587Z,14.98
2017-10-25T18:51:01.973Z,14.86
2017-10-25T18:53:30.379Z,14.81
2017-10-25T18:55:58.426Z,14.71
2017-10-25T18:58:26.385Z,14.69
2017-10-25T19:00:54.772Z,14.70
2017-10-25T19:03:23.169Z,14.72
2017-10-25T19:05:51.125Z,14.85
2017-10-25T19:08:19.082Z,14.88
2017-10-25T19:10:47.430Z,14.97
2017-10-25T19:13:15.384Z,14.97
2017-10-25T19:15:43.505Z,15.09
2017-10-25T19:18:11.881Z,15.06
2017-10-25T19:20:40.261Z,15.01
2017-10-25T19:23:08.691Z,14.85
2017-10-25T19:25:36.713Z,14.71
2017-10-25T19:28:05.118Z,14.57
2017-10-25T19:30:33.070Z,14.41
2017-10-25T19:33:01.010Z,14.38
2017-10-25T19:35:29.379Z,14.34
2017-10-25T19:37:57.320Z,14.28
2017-10-25T19:40:25.282Z,14.23
2017-10-25T19:42:53.221Z,14.18
2017-10-25T19:45:21.186Z,14.28
2017-10-25T19:47:49.141Z,14.28
2017-10-25T19:50:17.476Z,14.31
2017-10-25T19:52:45.506Z,14.29
2017-10-25T19:55:13.468Z,14.26
2017-10-25T19:57:41.811Z,14.27
2017-10-25T20:00:09.777Z,14.22
2017-10-25T20:02:37.734Z,14.22
2017-10-25T20:05:05.686Z,14.17
2017-10-25T20:07:33.652Z,14.09
2017-10-25T20:10:01.694Z,14.12
2017-10-25T20:12:30.302Z,14.08
2017-10-25T20:14:58.352Z,14.01
2017-10-25T20:17:26.326Z,14.07
2017-10-25T20:19:54.381Z,14.06
2017-10-25T20:22:22.768Z,14.07
2017-10-25T20:24:50.725Z,14.17
2017-10-25T20:27:19.065Z,14.18
2017-10-25T20:29:47.017Z,14.25
2017-10-25T20:32:15.081Z,14.22
2017-10-25T20:34:43.030Z,14.22
2017-10-25T20:37:11.086Z,14.22
2017-10-25T20:39:39.428Z,14.20
2017-10-25T20:42:07.442Z,14.12
2017-10-25T20:44:35.406Z,14.08
2017-10-25T20:47:03.785Z,14.05
2017-10-25T20:49:32.136Z,13.94
2017-10-25T20:52:00.092Z,13.92
2017-10-25T20:54:28.046Z,13.93
2017-10-25T20:59:24.453Z,13.90
2017-10-25T21:01:52.422Z,13.83
2017-10-25T21:04:20.376Z,13.81
2017-10-25T21:06:48.726Z,13.79
2017-10-25T21:09:16.676Z,13.74
2017-10-25T21:11:44.642Z,13.69
2017-10-25T21:14:12.598Z,13.64
2017-10-25T21:16:40.550Z,13.63
2017-10-25T21:19:08.496Z,13.58
2017-10-25T21:21:36.865Z,13.61
2017-10-25T21:24:04.817Z,13.58
2017-10-25T21:26:32.780Z,13.53
2017-10-25T21:29:00.734Z,13.45
2017-10-25T21:31:28.801Z,13.45
2017-10-25T21:33:56.749Z,13.44
2017-10-25T21:36:24.714Z,13.39
2017-10-25T21:38:52.693Z,13.30
2017-10-25T21:41:20.741Z,13.30
2017-10-25T21:43:49.081Z,13.25
2017-10-25T21:46:17.093Z,13.22
2017-10-25T21:48:45.077Z,13.22
2017-10-25T21:51:13.036Z,13.17
2017-10-25T21:53:40.981Z,13.15
2017-10-25T21:56:08.970Z,13.10
2017-10-25T21:58:36.933Z,13.02
2017-10-25T22:01:05.301Z,13.03
2017-10-25T22:03:33.659Z,13.06
2017-10-25T22:06:01.620Z,13.01
2017-10-25T22:08:31.379Z,13.00
2017-10-25T22:10:59.342Z,13.02
2017-10-25T22:13:27.313Z,13.01
2017-10-25T22:15:55.287Z,12.96
2017-10-25T22:18:23.251Z,12.88
2017-10-25T22:20:51.314Z,12.92
2017-10-25T22:23:19.660Z,12.79
2017-10-25T22:25:47.620Z,12.84
2017-10-25T22:28:15.585Z,12.78
2017-10-25T22:30:43.543Z,12.79
2017-10-25T22:33:11.505Z,12.75
2017-10-25T22:35:39.451Z,12.77
2017-10-25T22:38:07.437Z,12.71
2017-10-25T22:40:35.385Z,12.74
2017-10-25T22:43:03.360Z,12.72
2017-10-25T22:45:31.320Z,12.77
2017-10-25T22:47:59.278Z,12.85
2017-10-25T22:50:27.670Z,12.88
2017-10-25T22:52:55.619Z,13.01
2017-10-25T22:55:23.973Z,13.09
2017-10-25T22:57:51.961Z,13.15
2017-10-25T23:00:19.962Z,13.30
2017-10-25T23:02:47.923Z,13.39
2017-10-25T23:05:15.901Z,13.36
2017-10-25T23:07:43.886Z,13.43
2017-10-25T23:10:11.852Z,13.44
2017-10-25T23:12:39.821Z,13.45
2017-10-25T23:15:07.792Z,13.39
2017-10-25T23:17:35.833Z,13.33
2017-10-25T23:20:04.194Z,13.26
2017-10-25T23:22:32.184Z,13.16
2017-10-25T23:25:00.529Z,13.08
2017-10-25T23:27:28.493Z,12.98
2017-10-25T23:29:56.526Z,12.83
2017-10-25T23:32:24.497Z,12.77
2017-10-25T23:34:52.459Z,12.67
2017-10-25T23:37:20.419Z,12.58
2017-10-25T23:39:48.395Z,12.45
2017-10-25T23:42:16.457Z,12.50
2017-10-25T23:44:44.437Z,12.45
2017-10-25T23:47:12.503Z,12.41
2017-10-25T23:49:40.466Z,12.41
2017-10-25T23:52:08.438Z,12.40
2017-10-25T23:54:36.626Z,12.32
2017-10-25T23:57:04.698Z,12.32
2017-10-25T23:59:32.672Z,12.22
